Time;durP1;ratioP1;P1;durP2;ratioP2;P2;SDS_P1;SDS_P2;PMS_P1;PMS_P2;Temp;Humidity;BMP_temperature;BMP_pressure;BME280_temperature;BME280_humidity;BME280_pressure;Samples;Min_cycle;Max_cycle;Signal;HPM_P1;HPM_P2
2021/03/19 00:00:43;;;;;;;19.43;15.50;;;;;;;20.95;42.16;99905.75;2077482;28;20028;-42
2021/03/19 00:01:43;;;;;;;16.43;14.13;;;;;;;20.94;41.90;99914.13;2078650;28;20032;-42
2021/03/19 00:02:44;;;;;;;17.30;15.03;;;;;;;20.93;42.10;99905.06;2078215;28;20017;-42
2021/03/19 00:03:44;;;;;;;17.03;13.87;;;;;;;20.94;42.17;99904.03;2077737;28;20045;-43
2021/03/19 00:04:45;;;;;;;18.63;14.97;;;;;;;20.91;41.84;99903.53;2081323;28;20025;-41
2021/03/19 00:05:45;;;;;;;17.33;15.20;;;;;;;20.77;42.13;99902.25;2079212;28;20050;-40
2021/03/19 00:06:46;;;;;;;20.37;16.43;;;;;;;20.67;42.21;99907.03;2079748;28;20394;-40
2021/03/19 00:07:50;;;;;;;23.17;16.17;;;;;;;20.55;42.48;99896.38;2081996;28;20549;-40
2021/03/19 00:08:51;;;;;;;20.15;15.38;;;;;;;20.48;42.78;99891.66;2082324;28;20061;-40
2021/03/19 00:09:52;;;;;;;19.83;15.10;;;;;;;20.42;42.84;99890.44;2080169;28;20021;-39
2021/03/19 00:10:53;;;;;;;21.52;15.27;;;;;;;20.38;43.05;99896.41;2081107;28;20089;-40
2021/03/19 00:11:53;;;;;;;20.20;15.50;;;;;;;20.34;43.11;99887.69;2082555;28;20045;-40
2021/03/19 00:12:56;;;;;;;18.27;14.73;;;;;;;20.30;43.17;99889.03;2082157;28;20064;-40
2021/03/19 00:13:57;;;;;;;22.70;16.00;;;;;;;20.28;43.19;99886.44;2082514;28;20076;-40
2021/03/19 00:14:57;;;;;;;19.37;15.03;;;;;;;20.26;43.10;99893.09;2081032;28;20136;-40
2021/03/19 00:15:58;;;;;;;22.67;17.67;;;;;;;20.26;43.16;99893.97;2081718;28;20107;-40
2021/03/19 00:16:58;;;;;;;23.63;18.37;;;;;;;20.25;43.15;99892.25;2082380;28;20096;-40
2021/03/19 00:18:00;;;;;;;27.00;19.17;;;;;;;20.24;43.19;99884.22;2081646;28;20124;-40
2021/03/19 00:19:01;;;;;;;24.45;17.40;;;;;;;20.26;43.23;99882.16;2082479;28;20025;-40
2021/03/19 00:20:04;;;;;;;24.08;17.77;;;;;;;20.28;43.17;99880.09;2081814;28;20064;-40
2021/03/19 00:21:05;;;;;;;22.55;17.17;;;;;;;20.27;43.11;99884.72;2081856;28;20068;-40
2021/03/19 00:22:06;;;;;;;24.25;18.10;;;;;;;20.31;43.12;99885.28;2082143;28;20021;-40
2021/03/19 00:23:08;;;;;;;23.42;17.42;;;;;;;20.35;43.14;99881.16;2081444;28;20041;-40
2021/03/19 00:24:08;;;;;;;23.45;18.77;;;;;;;20.38;42.86;99880.84;2082353;28;20156;-40
2021/03/19 00:25:09;;;;;;;21.03;16.77;;;;;;;20.44;42.88;99884.81;2080382;28;20017;-39
2021/03/19 00:26:10;;;;;;;25.13;19.23;;;;;;;20.47;42.82;99882.59;2080345;28;20033;-39
2021/03/19 00:27:10;;;;;;;25.10;20.77;;;;;;;20.50;42.90;99884.16;2081296;28;20035;-40
2021/03/19 00:28:14;;;;;;;25.93;19.57;;;;;;;20.53;42.65;99889.31;2082047;28;20491;-40
2021/03/19 00:29:15;;;;;;;21.98;18.08;;;;;;;20.54;42.79;99886.41;2081149;28;20041;-40
2021/03/19 00:30:15;;;;;;;19.80;16.67;;;;;;;20.55;42.66;99888.16;2081995;28;20025;-40
2021/03/19 00:31:16;;;;;;;21.93;17.30;;;;;;;20.57;42.72;99884.41;2073988;28;20029;-41
2021/03/19 00:32:17;;;;;;;22.33;16.30;;;;;;;20.58;42.45;99878.75;2081639;28;20068;-40
2021/03/19 00:33:18;;;;;;;20.97;16.53;;;;;;;20.59;42.38;99874.13;2080573;28;20048;-39
2021/03/19 00:34:18;;;;;;;21.40;15.47;;;;;;;20.59;42.55;99874.13;2078055;28;20671;-40
2021/03/19 00:35:19;;;;;;;19.93;15.13;;;;;;;20.59;42.60;99876.88;2079234;28;20454;-40
2021/03/19 00:36:19;;;;;;;19.30;14.97;;;;;;;20.58;42.70;99877.88;2085507;28;20100;-41
2021/03/19 00:37:20;;;;;;;21.13;16.43;;;;;;;20.59;42.52;99883.22;2078785;28;20094;-40
2021/03/19 00:38:20;;;;;;;17.87;14.43;;;;;;;20.60;42.52;99878.56;2077279;28;20435;-40
2021/03/19 00:39:21;;;;;;;22.13;16.23;;;;;;;20.60;42.67;99881.31;2080710;28;20075;-40
2021/03/19 00:40:22;;;;;;;19.57;15.37;;;;;;;20.59;42.43;99882.34;2082205;28;20036;-40
2021/03/19 00:41:22;;;;;;;18.70;14.40;;;;;;;20.58;42.60;99876.03;2076453;28;20029;-40
2021/03/19 00:42:23;;;;;;;17.80;14.27;;;;;;;20.58;42.46;99880.63;2081377;28;20033;-39
2021/03/19 00:43:24;;;;;;;18.60;14.80;;;;;;;20.55;42.71;99885.44;2078559;28;20030;-40
2021/03/19 00:44:24;;;;;;;18.47;15.17;;;;;;;20.54;42.59;99883.66;2075444;28;20127;-40
2021/03/19 00:45:28;;;;;;;18.23;14.20;;;;;;;20.55;42.64;99881.81;2076954;28;20026;-40
2021/03/19 00:46:29;;;;;;;17.50;14.30;;;;;;;20.53;42.66;99884.69;2080566;28;20414;-40
2021/03/19 00:47:31;;;;;;;18.07;14.40;;;;;;;20.54;42.62;99878.19;2081808;28;20037;-40
2021/03/19 00:48:31;;;;;;;;;;;;;;;20.51;42.73;99881.25;2082163;28;20021;-40
2021/03/19 00:49:33;;;;;;;20.17;14.38;;;;;;;20.52;42.77;99877.50;2077429;28;19921;-40
2021/03/19 00:50:39;;;;;;;17.25;14.20;;;;;;;20.53;42.65;99872.91;2081525;28;20055;-40
2021/03/19 00:51:40;;;;;;;19.63;15.50;;;;;;;20.51;42.66;99867.56;2079585;28;20047;-40
2021/03/19 00:52:40;;;;;;;19.10;14.37;;;;;;;20.52;42.73;99866.53;2080877;28;20021;-40
2021/03/19 00:53:41;;;;;;;19.43;14.60;;;;;;;20.51;42.81;99867.56;2090643;28;20029;-40
2021/03/19 00:54:41;;;;;;;15.33;13.70;;;;;;;20.51;42.72;99867.56;2082670;28;21330;-40
2021/03/19 00:55:42;;;;;;;18.93;13.60;;;;;;;20.51;42.85;99863.97;2084382;28;20497;-40
2021/03/19 00:56:42;;;;;;;17.23;13.37;;;;;;;20.50;42.83;99857.63;2078781;28;20021;-39
2021/03/19 00:57:43;;;;;;;17.87;13.97;;;;;;;20.50;42.86;99863.09;2081548;28;20017;-40
2021/03/19 00:58:43;;;;;;;17.70;12.73;;;;;;;20.49;42.88;99866.88;2070779;28;20050;-40
2021/03/19 00:59:43;;;;;;;16.00;12.63;;;;;;;20.52;42.75;99861.06;2078000;28;20495;-41
2021/03/19 01:00:44;;;;;;;17.37;14.23;;;;;;;20.51;42.75;99863.97;2074135;28;20079;-40
2021/03/19 01:01:44;;;;;;;16.27;13.40;;;;;;;20.51;42.71;99863.97;2081931;28;20424;-40
2021/03/19 01:02:45;;;;;;;16.83;14.43;;;;;;;20.50;42.91;99862.25;2077904;28;20033;-40
2021/03/19 01:03:45;;;;;;;18.17;14.90;;;;;;;20.50;42.91;99868.56;2088088;28;20647;-40
2021/03/19 01:04:46;;;;;;;18.80;14.77;;;;;;;20.49;42.93;99861.41;2085396;28;20387;-40
2021/03/19 01:05:47;;;;;;;16.40;13.70;;;;;;;20.49;42.91;99866.88;2081552;28;20021;-41
2021/03/19 01:06:47;;;;;;;18.37;13.97;;;;;;;20.48;42.90;99870.66;2079818;28;20412;-41
2021/03/19 01:07:48;;;;;;;15.97;13.37;;;;;;;20.47;42.96;99868.91;2081803;28;20363;-40
2021/03/19 01:08:48;;;;;;;18.03;13.27;;;;;;;20.48;42.81;99859.69;2081970;28;20029;-41
2021/03/19 01:09:49;;;;;;;18.10;14.63;;;;;;;20.47;42.86;99865.31;2081360;28;20291;-41
2021/03/19 01:10:53;;;;;;;17.50;14.13;;;;;;;20.47;42.95;99862.59;2080187;28;20033;-41
2021/03/19 01:11:53;;;;;;;16.70;12.98;;;;;;;20.46;42.94;99856.25;2073567;28;20032;-41
2021/03/19 01:12:54;;;;;;;18.93;13.67;;;;;;;20.45;42.91;99854.53;2073048;28;20471;-41
2021/03/19 01:13:55;;;;;;;18.43;12.70;;;;;;;20.44;43.08;99852.81;2073993;28;20742;-41
2021/03/19 01:14:56;;;;;;;14.67;12.97;;;;;;;20.45;43.03;99856.41;2072991;28;20032;-41
2021/03/19 01:15:56;;;;;;;15.43;12.80;;;;;;;20.44;43.10;99852.81;2075525;28;20048;-41
2021/03/19 01:16:57;;;;;;;16.67;13.77;;;;;;;20.43;42.91;99853.84;2080790;28;20112;-40
2021/03/19 01:17:57;;;;;;;15.30;12.37;;;;;;;20.43;43.10;99855.72;2081986;28;20032;-41
2021/03/19 01:18:58;;;;;;;17.17;13.13;;;;;;;20.42;43.05;99854.84;2079365;28;20039;-41
2021/03/19 01:19:59;;;;;;;15.53;12.80;;;;;;;20.42;42.99;99859.47;2081573;28;20029;-41
2021/03/19 01:21:00;;;;;;;15.32;12.93;;;;;;;20.41;43.15;99857.78;2077949;28;20036;-40
2021/03/19 01:22:00;;;;;;;15.03;12.40;;;;;;;20.41;43.16;99864.09;2081868;28;20418;-41
2021/03/19 01:23:01;;;;;;;15.80;12.67;;;;;;;20.41;43.01;99857.78;2076657;28;20025;-41
2021/03/19 01:24:01;;;;;;;17.47;12.80;;;;;;;20.39;42.99;99860.66;2073351;28;20045;-41
2021/03/19 01:25:06;;;;;;;15.93;12.63;;;;;;;20.39;43.17;99866.16;2073713;28;20051;-41
2021/03/19 01:26:06;;;;;;;14.00;12.15;;;;;;;20.37;42.91;99865.44;2073209;28;20036;-41
2021/03/19 01:27:06;;;;;;;16.60;13.23;;;;;;;20.37;43.23;99868.19;2079396;28;20025;-41
2021/03/19 01:28:07;;;;;;;15.43;13.17;;;;;;;20.36;43.21;99861.00;2073352;28;20064;-41
2021/03/19 01:29:08;;;;;;;17.03;13.00;;;;;;;20.35;43.08;99856.53;2072044;28;20458;-40
2021/03/19 01:30:17;;;;;;;14.57;12.10;;;;;;;20.34;43.23;99852.09;2084553;28;20036;-41
2021/03/19 01:31:17;;;;;;;13.57;12.07;;;;;;;20.34;43.17;99863.91;2081938;28;20678;-41
2021/03/19 01:32:18;;;;;;;15.93;13.47;;;;;;;20.32;43.21;99860.47;2075668;28;20037;-41
2021/03/19 01:33:19;;;;;;;14.33;11.90;;;;;;;20.32;43.21;99865.94;2073380;28;20034;-41
2021/03/19 01:34:19;;;;;;;15.57;12.73;;;;;;;20.31;43.11;99868.84;2074843;28;20049;-41
2021/03/19 01:35:23;;;;;;;16.73;13.30;;;;;;;20.32;43.22;99865.94;2078838;28;20053;-41
2021/03/19 01:36:23;;;;;;;15.93;12.35;;;;;;;20.33;43.21;99861.31;2077482;28;20048;-41
2021/03/19 01:37:26;;;;;;;17.97;12.40;;;;;;;20.32;43.25;99876.88;2081611;28;20060;-41
2021/03/19 01:38:26;;;;;;;14.00;11.88;;;;;;;20.32;43.35;99876.03;2081123;28;20025;-40
2021/03/19 01:39:26;;;;;;;16.70;13.37;;;;;;;20.31;43.28;99875.19;2080924;28;20029;-41
2021/03/19 01:40:37;;;;;;;15.67;12.63;;;;;;;20.30;43.34;99881.66;2081798;28;20052;-41
2021/03/19 01:41:38;;;;;;;15.38;12.50;;;;;;;20.29;43.35;99870.91;2075850;28;20091;-41
2021/03/19 01:42:44;;;;;;;15.13;12.45;;;;;;;20.26;43.29;99869.34;2073547;28;20072;-41
2021/03/19 01:43:48;;;;;;;16.33;12.98;;;;;;;20.26;43.48;99865.72;2073539;28;20037;-41
2021/03/19 01:45:16;;;;;;;15.15;12.35;;;;;;;20.26;43.49;99860.25;2076719;28;20080;-41
2021/03/19 01:46:54;;;;;;;15.82;13.13;;;;;;;20.24;43.34;99856.84;2080156;28;20070;-41
2021/03/19 01:48:31;;;;;;;16.77;12.35;;;;;;;20.24;43.35;99848.63;2081149;28;20052;-40
2021/03/19 01:50:09;;;;;;;16.35;12.30;;;;;;;20.24;43.48;99846.75;2082268;28;20116;-40
2021/03/19 01:51:47;;;;;;;14.55;11.35;;;;;;;20.22;43.42;99836.97;2080740;28;20024;-41
2021/03/19 01:53:25;;;;;;;16.48;12.77;;;;;;;20.22;43.52;99837.84;2079057;28;20029;-41
2021/03/19 01:55:03;;;;;;;13.80;11.32;;;;;;;20.20;43.50;99826.19;2080374;28;20033;-41
2021/03/19 01:56:41;;;;;;;16.15;12.05;;;;;;;20.20;43.44;99828.06;2080284;28;20017;-41
2021/03/19 01:58:32;;;;;;;14.77;11.98;;;;;;;20.18;43.57;99825.50;2079791;28;20706;-41
2021/03/19 02:00:10;;;;;;;13.48;11.50;;;;;;;20.18;43.45;99821.91;2037275;28;20082;-41
2021/03/19 02:01:48;;;;;;;14.13;11.30;;;;;;;20.16;43.58;99819.31;2073461;28;20352;-41
2021/03/19 02:03:26;;;;;;;14.35;11.07;;;;;;;20.15;43.49;99814.88;2073488;28;20420;-41
2021/03/19 02:05:04;;;;;;;14.50;11.10;;;;;;;20.14;43.57;99807.69;2073332;28;20121;-41
2021/03/19 02:06:41;;;;;;;14.05;11.35;;;;;;;20.13;43.60;99806.81;2077461;28;20057;-41
2021/03/19 02:08:19;;;;;;;14.90;10.85;;;;;;;20.12;43.56;99804.25;2078584;28;20458;-41
2021/03/19 02:09:57;;;;;;;15.75;11.40;;;;;;;20.11;43.64;99797.94;2078376;28;20033;-40
2021/03/19 02:11:35;;;;;;;15.60;12.05;;;;;;;20.09;43.64;99789.03;2078052;28;20025;-41
2021/03/19 02:13:12;;;;;;;14.63;12.55;;;;;;;20.09;43.63;99786.28;2072905;28;20029;-41
2021/03/19 02:14:50;;;;;;;13.18;11.15;;;;;;;20.09;43.58;99783.56;2081783;28;20029;-41
2021/03/19 02:16:28;;;;;;;15.23;12.10;;;;;;;20.08;43.80;99773.63;2075358;28;20048;-41
2021/03/19 02:18:06;;;;;;;13.25;10.40;;;;;;;20.08;43.61;99768.16;2076625;28;20034;-41
2021/03/19 02:19:43;;;;;;;13.25;11.63;;;;;;;20.09;43.71;99772.63;2081445;28;20033;-41
2021/03/19 02:21:21;;;;;;;14.10;10.77;;;;;;;20.10;43.72;99763.38;2075243;28;20033;-41
2021/03/19 02:22:59;;;;;;;14.85;12.10;;;;;;;20.10;43.76;99757.91;2080042;28;20116;-48
2021/03/19 02:24:37;;;;;;;14.10;10.65;;;;;;;20.10;43.71;99757.91;2078774;28;20029;-42
2021/03/19 02:26:14;;;;;;;12.68;11.05;;;;;;;20.12;43.58;99765.97;2080363;28;20057;-41
2021/03/19 02:27:52;;;;;;;13.63;11.35;;;;;;;20.14;43.68;99752.97;2079677;28;20057;-41
2021/03/19 02:29:30;;;;;;;15.25;10.75;;;;;;;20.13;43.66;99773.13;2080177;28;20033;-41
2021/03/19 02:31:08;;;;;;;14.02;11.27;;;;;;;20.12;43.62;99768.69;2076421;28;20112;-41
2021/03/19 02:32:14;;;;;;;14.73;10.82;;;;;;;20.17;43.63;99770.94;2078305;28;20036;-40
2021/03/19 02:33:15;;;;;;;14.77;11.50;;;;;;;20.13;43.68;99763.03;2081107;28;20093;-41
2021/03/19 02:34:15;;;;;;;13.00;11.60;;;;;;;20.13;43.63;99757.56;2072089;28;20060;-40
2021/03/19 02:35:19;;;;;;;13.27;10.87;;;;;;;20.13;43.69;99763.03;2072296;28;20034;-41
2021/03/19 02:36:24;;;;;;;15.60;11.02;;;;;;;20.12;43.64;99761.34;2080410;28;20092;-40
2021/03/19 02:37:28;;;;;;;14.23;10.80;;;;;;;20.12;43.62;99755.88;2079856;28;20451;-41
2021/03/19 02:38:28;;;;;;;13.15;10.45;;;;;;;20.11;43.65;99751.44;2079254;28;20041;-41
2021/03/19 02:39:29;;;;;;;12.00;10.37;;;;;;;20.11;43.51;99745.94;2077493;28;20051;-41
2021/03/19 02:40:29;;;;;;;13.17;10.77;;;;;;;20.11;43.65;99745.94;2087200;28;20108;-41
2021/03/19 02:41:29;;;;;;;13.67;11.07;;;;;;;20.11;43.66;99743.22;2079776;28;20032;-41
2021/03/19 02:42:31;;;;;;;13.03;11.33;;;;;;;20.09;43.65;99745.25;2081055;28;20339;-41
2021/03/19 02:43:32;;;;;;;15.32;10.73;;;;;;;20.10;43.63;99746.97;2080921;28;20037;-41
2021/03/19 02:44:34;;;;;;;13.57;10.73;;;;;;;20.09;43.56;99738.94;2080329;28;20109;-40
2021/03/19 02:45:34;;;;;;;12.75;10.48;;;;;;;20.10;43.69;99740.63;2079206;28;20404;-41
2021/03/19 02:46:35;;;;;;;12.30;9.60;;;;;;;20.08;43.76;99738.06;2074994;28;20033;-41
2021/03/19 02:47:36;;;;;;;15.10;11.17;;;;;;;20.08;43.74;99739.94;2080390;28;20053;-41
2021/03/19 02:48:37;;;;;;;13.95;10.88;;;;;;;20.08;43.74;99737.19;2083469;28;20033;-41
2021/03/19 02:49:38;;;;;;;15.70;11.50;;;;;;;20.06;43.82;99731.03;2079586;28;20506;-41
2021/03/19 02:50:40;;;;;;;13.47;10.67;;;;;;;20.03;43.79;99729.47;2068670;28;20709;-41
2021/03/19 02:51:41;;;;;;;13.50;10.15;;;;;;;20.05;43.87;99732.06;2071838;28;20029;-41
2021/03/19 02:52:43;;;;;;;14.07;11.83;;;;;;;20.02;43.94;99738.72;2080665;28;20037;-41
2021/03/19 02:53:43;;;;;;;15.23;10.82;;;;;;;20.02;43.84;99744.19;2083558;28;20384;-41
2021/03/19 02:54:44;;;;;;;14.00;10.53;;;;;;;20.02;43.85;99737.88;2086449;28;20079;-41
2021/03/19 02:55:44;;;;;;;11.17;9.77;;;;;;;20.02;43.84;99744.19;2088825;28;20028;-41
2021/03/19 02:56:45;;;;;;;12.40;10.37;;;;;;;20.02;43.85;99735.13;2075026;28;20026;-41
2021/03/19 02:57:45;;;;;;;13.90;10.20;;;;;;;20.00;43.89;99723.50;2076661;28;20033;-41
2021/03/19 02:58:46;;;;;;;11.83;10.30;;;;;;;19.99;43.88;99725.38;2075874;28;20061;-41
2021/03/19 02:59:46;;;;;;;14.77;11.20;;;;;;;19.99;43.87;99736.31;2080784;28;20029;-41
2021/03/19 03:00:47;;;;;;;17.60;9.70;;;;;;;19.97;43.91;99734.78;2077598;28;20376;-41
2021/03/19 03:01:48;;;;;;;13.27;9.98;;;;;;;19.97;43.93;99735.63;2079665;28;20064;-41
2021/03/19 03:02:49;;;;;;;12.10;10.03;;;;;;;19.96;44.00;99733.03;2081088;28;20439;-41
2021/03/19 03:03:49;;;;;;;14.73;9.68;;;;;;;19.94;43.94;99730.47;2080426;28;20035;-41
2021/03/19 03:04:50;;;;;;;10.30;9.20;;;;;;;19.94;43.94;99729.59;2081169;28;20040;-41
2021/03/19 03:05:50;;;;;;;12.43;10.47;;;;;;;19.94;44.02;99730.47;2082614;28;20111;-41
2021/03/19 03:06:55;;;;;;;11.77;10.13;;;;;;;19.94;44.03;99735.09;2080473;28;20036;-41
2021/03/19 03:07:56;;;;;;;12.88;10.63;;;;;;;19.92;44.02;99735.25;2080840;28;20033;-41
2021/03/19 03:08:57;;;;;;;13.20;10.02;;;;;;;19.91;43.92;99730.81;2081984;28;20021;-41
2021/03/19 03:09:58;;;;;;;13.30;9.37;;;;;;;19.90;44.12;99724.47;2079798;28;20029;-41
2021/03/19 03:11:00;;;;;;;14.02;9.77;;;;;;;19.90;44.04;99734.56;2072560;28;20498;-40
2021/03/19 03:12:02;;;;;;;11.95;9.55;;;;;;;19.90;43.89;99720.88;2082482;28;20069;-41
2021/03/19 03:13:03;;;;;;;12.25;9.68;;;;;;;19.88;44.03;99715.56;2082213;28;20029;-41
2021/03/19 03:14:10;;;;;;;14.10;11.10;;;;;;;19.88;44.00;99720.19;2078842;28;20115;-41
2021/03/19 03:15:13;;;;;;;12.32;9.52;;;;;;;19.89;44.07;99716.41;2075842;28;20100;-40
2021/03/19 03:16:13;;;;;;;13.15;9.50;;;;;;;19.88;44.04;99717.47;2081021;28;20090;-41
2021/03/19 03:17:15;;;;;;;12.07;9.40;;;;;;;19.88;44.18;99718.31;2086448;28;20029;-41
2021/03/19 03:18:16;;;;;;;12.35;9.60;;;;;;;19.87;44.07;99719.34;2087787;28;20088;-41
2021/03/19 03:19:21;;;;;;;11.25;9.93;;;;;;;19.84;44.18;99722.41;2081086;28;20073;-41
2021/03/19 03:20:47;;;;;;;12.60;9.95;;;;;;;19.83;44.13;99715.22;2080745;28;20034;-40
2021/03/19 03:21:47;;;;;;;13.27;10.25;;;;;;;19.84;44.15;99714.22;2079940;28;20041;-40
2021/03/19 03:22:48;;;;;;;12.13;9.83;;;;;;;19.84;44.09;99705.13;2080773;28;20063;-41
2021/03/19 03:23:48;;;;;;;12.37;9.20;;;;;;;19.82;44.08;99710.78;2076661;28;20032;-41
2021/03/19 03:24:49;;;;;;;13.97;9.53;;;;;;;19.83;44.13;99706.16;2077142;28;20037;-40
2021/03/19 03:25:50;;;;;;;11.87;9.60;;;;;;;19.82;44.09;99708.03;2075554;28;20037;-40
2021/03/19 03:26:51;;;;;;;11.93;9.57;;;;;;;19.83;44.14;99714.38;2078978;28;20427;-40
2021/03/19 03:27:52;;;;;;;13.07;9.90;;;;;;;19.82;44.14;99707.16;2080857;28;20040;-40
2021/03/19 03:28:53;;;;;;;11.60;9.60;;;;;;;19.83;44.08;99708.91;2080935;28;20343;-41
2021/03/19 03:29:53;;;;;;;12.20;10.20;;;;;;;19.81;44.17;99711.78;2080149;28;20069;-40
2021/03/19 03:30:57;;;;;;;10.97;8.60;;;;;;;19.82;44.12;99709.91;2077589;28;20487;-41
2021/03/19 03:31:57;;;;;;;11.95;9.90;;;;;;;19.82;44.08;99716.25;2070962;28;20033;-41
2021/03/19 03:32:58;;;;;;;12.63;9.47;;;;;;;19.81;44.19;99706.31;2072360;28;20038;-41
2021/03/19 03:33:59;;;;;;;12.30;9.73;;;;;;;19.81;44.10;99700.00;2079774;28;20034;-41
2021/03/19 03:34:59;;;;;;;10.55;8.85;;;;;;;19.81;44.12;99700.00;2089329;28;20029;-41
2021/03/19 03:36:00;;;;;;;13.10;10.40;;;;;;;19.80;44.18;99698.28;2082030;28;20056;-41
2021/03/19 03:37:01;;;;;;;13.30;9.13;;;;;;;19.79;44.13;99699.28;2082668;28;20105;-41
2021/03/19 03:38:05;;;;;;;13.03;9.70;;;;;;;19.77;44.22;99695.84;2082500;28;20053;-40
2021/03/19 03:39:09;;;;;;;10.85;8.80;;;;;;;19.77;44.15;99702.22;2081425;28;20083;-40
2021/03/19 03:40:15;;;;;;;12.02;9.57;;;;;;;19.77;44.37;99695.84;2082695;28;20033;-41
2021/03/19 03:41:18;;;;;;;10.88;9.63;;;;;;;19.76;44.30;99702.38;2081583;28;20065;-41
2021/03/19 03:42:19;;;;;;;12.45;10.50;;;;;;;19.77;44.26;99695.84;2083932;28;20136;-40
2021/03/19 03:43:20;;;;;;;10.17;8.30;;;;;;;19.75;44.34;99704.25;2076373;28;20030;-41
2021/03/19 03:44:20;;;;;;;12.57;9.27;;;;;;;19.75;44.37;99703.41;2083842;28;20039;-41
2021/03/19 03:45:21;;;;;;;15.50;10.23;;;;;;;19.75;44.53;99697.94;2082818;28;20272;-41
2021/03/19 03:46:25;;;;;;;12.70;9.83;;;;;;;19.74;44.46;99697.03;2080417;28;20033;-41
2021/03/19 03:47:26;;;;;;;10.55;9.32;;;;;;;19.75;44.40;99696.03;2082096;28;20041;-39
2021/03/19 03:48:32;;;;;;;12.93;9.63;;;;;;;19.74;44.39;99690.72;2065873;28;20034;-41
2021/03/19 03:49:32;;;;;;;10.10;8.35;;;;;;;19.74;44.39;99698.94;2073432;28;20148;-41
2021/03/19 03:50:33;;;;;;;10.27;8.40;;;;;;;19.74;44.28;99696.19;2090857;28;20037;-41
2021/03/19 03:51:34;;;;;;;11.60;9.48;;;;;;;19.74;44.40;99688.00;2079307;28;20030;-41
2021/03/19 03:52:34;;;;;;;10.73;8.27;;;;;;;19.73;44.43;99689.88;2076539;28;20034;-41
2021/03/19 03:53:36;;;;;;;11.37;9.10;;;;;;;19.74;44.40;99690.72;2082343;28;20033;-41
2021/03/19 03:54:36;;;;;;;11.45;8.57;;;;;;;19.75;44.22;99693.31;2082053;28;20690;-41
2021/03/19 03:55:38;;;;;;;10.87;8.70;;;;;;;19.77;44.27;99693.13;2080810;28;20061;-41
2021/03/19 03:56:39;;;;;;;11.27;9.32;;;;;;;19.77;44.27;99690.38;2084528;28;20025;-41
2021/03/19 03:57:40;;;;;;;11.50;8.37;;;;;;;19.78;44.26;99683.91;2088180;28;20029;-41
2021/03/19 03:58:40;;;;;;;10.10;8.60;;;;;;;19.79;44.28;99699.28;2077574;28;20109;-41
2021/03/19 03:59:41;;;;;;;9.67;8.13;;;;;;;19.79;44.29;99691.09;2080128;28;20101;-41
2021/03/19 04:00:42;;;;;;;11.93;9.13;;;;;;;19.78;44.20;99686.66;2077287;28;20254;-41
2021/03/19 04:01:43;;;;;;;9.88;8.40;;;;;;;19.78;44.31;99686.66;2081554;28;20072;-41
2021/03/19 04:02:43;;;;;;;11.83;9.30;;;;;;;19.79;44.28;99682.88;2082593;28;20037;-41
2021/03/19 04:03:44;;;;;;;14.20;9.50;;;;;;;19.79;44.24;99682.88;2081290;28;20411;-41
2021/03/19 04:04:47;;;;;;;10.07;7.40;;;;;;;19.80;44.22;99681.88;2080595;28;20137;-47
2021/03/19 04:05:48;;;;;;;12.05;9.02;;;;;;;19.78;44.31;99682.03;2080216;28;20495;-40
2021/03/19 04:06:49;;;;;;;11.23;8.68;;;;;;;19.79;44.22;99685.63;2081563;28;20025;-41
2021/03/19 04:07:50;;;;;;;10.97;9.03;;;;;;;19.79;44.35;99682.88;2073022;28;20037;-40
2021/03/19 04:08:50;;;;;;;10.00;8.33;;;;;;;19.78;44.34;99681.19;2073164;28;20034;-41
2021/03/19 04:09:51;;;;;;;12.77;9.57;;;;;;;19.79;44.32;99686.47;2082122;28;20025;-41
2021/03/19 04:10:55;;;;;;;10.67;8.60;;;;;;;19.79;44.27;99682.88;2082187;28;20035;-41
2021/03/19 04:11:56;;;;;;;10.88;8.45;;;;;;;19.78;44.31;99681.19;2080981;28;20344;-41
2021/03/19 04:12:57;;;;;;;9.57;7.73;;;;;;;19.77;44.30;99684.91;2081834;28;20057;-41
2021/03/19 04:13:57;;;;;;;13.23;8.70;;;;;;;19.76;44.43;99678.59;2082269;28;20083;-41
2021/03/19 04:14:58;;;;;;;11.47;9.40;;;;;;;19.77;44.32;99684.91;2086004;28;20060;-41
2021/03/19 04:15:59;;;;;;;10.47;8.50;;;;;;;19.75;44.38;99676.91;2085586;28;20029;-41
2021/03/19 04:16:59;;;;;;;10.00;8.50;;;;;;;19.75;44.34;99681.53;2082004;28;20053;-40
2021/03/19 04:18:06;;;;;;;9.90;8.27;;;;;;;19.73;44.49;99678.94;2081391;28;20040;-41
2021/03/19 04:19:06;;;;;;;10.52;8.25;;;;;;;19.73;44.51;99680.81;2081590;28;20143;-41
2021/03/19 04:20:08;;;;;;;9.67;8.23;;;;;;;19.74;44.40;99685.25;2082304;28;20028;-41
2021/03/19 04:21:10;;;;;;;11.82;9.23;;;;;;;19.72;44.49;99679.97;2081746;28;20033;-41
2021/03/19 04:22:10;;;;;;;11.32;8.23;;;;;;;19.73;44.54;99680.81;2081872;28;20033;-41
2021/03/19 04:23:11;;;;;;;12.03;8.90;;;;;;;19.72;44.45;99682.69;2079633;28;20096;-41
2021/03/19 04:24:12;;;;;;;9.90;8.05;;;;;;;19.70;44.51;99688.31;2082143;28;20083;-41
2021/03/19 04:25:13;;;;;;;10.10;8.80;;;;;;;19.72;44.40;99681.81;2081217;28;20379;-41
2021/03/19 04:26:24;;;;;;;10.32;7.88;;;;;;;19.70;44.46;99680.13;2081050;28;20332;-41
2021/03/19 04:27:28;;;;;;;12.50;9.43;;;;;;;19.69;44.55;99678.38;2081916;28;20120;-41
2021/03/19 04:28:34;;;;;;;11.93;8.43;;;;;;;19.69;44.56;99678.38;2080608;28;20038;-41
2021/03/19 04:29:34;;;;;;;9.25;7.55;;;;;;;19.69;44.54;99674.81;2081555;28;20435;-41
2021/03/19 04:30:40;;;;;;;11.03;8.23;;;;;;;19.69;44.55;99681.13;2081908;28;20029;-41
2021/03/19 04:31:40;;;;;;;8.88;7.95;;;;;;;19.68;44.66;99679.41;2080584;28;20024;-40
2021/03/19 04:32:40;;;;;;;9.13;7.80;;;;;;;19.68;44.50;99679.41;2075649;28;20040;-41
2021/03/19 04:33:41;;;;;;;9.00;7.57;;;;;;;19.68;44.58;99673.97;2077944;28;20034;-41
2021/03/19 04:34:42;;;;;;;9.43;7.43;;;;;;;19.67;44.70;99671.34;2084679;28;20029;-40
2021/03/19 04:35:42;;;;;;;10.18;8.35;;;;;;;19.66;44.55;99673.22;2086554;28;20025;-41
2021/03/19 04:36:50;;;;;;;10.00;7.77;;;;;;;19.65;44.56;99674.25;2081191;28;20076;-41
2021/03/19 04:37:56;;;;;;;12.70;8.32;;;;;;;19.65;44.54;99668.78;2078328;28;20026;-41
2021/03/19 04:39:01;;;;;;;10.15;7.90;;;;;;;19.63;44.71;99662.63;2076811;28;20026;-41
2021/03/19 04:40:02;;;;;;;9.95;7.85;;;;;;;19.63;44.68;99659.88;2074159;28;20021;-41
2021/03/19 04:41:05;;;;;;;9.13;7.30;;;;;;;19.62;44.66;99660.03;2076462;28;20061;-41
2021/03/19 04:42:07;;;;;;;9.63;7.60;;;;;;;19.63;44.65;99659.03;2079154;28;20310;-41
2021/03/19 04:43:08;;;;;;;9.82;7.90;;;;;;;19.61;44.80;99664.66;2078726;28;20037;-40
2021/03/19 04:44:08;;;;;;;8.80;7.90;;;;;;;19.60;44.82;99645.66;2076747;28;20049;-40
2021/03/19 04:45:11;;;;;;;10.73;7.87;;;;;;;19.60;44.66;99652.03;2083556;28;20033;-41
2021/03/19 04:46:11;;;;;;;12.02;7.65;;;;;;;19.60;44.87;99649.28;2081682;28;20033;-41
2021/03/19 04:47:13;;;;;;;11.63;7.90;;;;;;;19.60;44.83;99643.81;2081941;28;20309;-41
2021/03/19 04:48:13;;;;;;;10.52;8.52;;;;;;;19.60;44.72;99638.34;2080645;28;20025;-40
2021/03/19 04:49:14;;;;;;;10.30;7.87;;;;;;;19.58;44.88;99643.13;2081524;28;20029;-41
2021/03/19 04:50:15;;;;;;;9.73;8.10;;;;;;;19.59;44.75;99642.09;2082268;28;20048;-41
2021/03/19 04:51:16;;;;;;;9.63;7.47;;;;;;;19.60;44.94;99645.66;2079722;28;20282;-40
2021/03/19 04:52:17;;;;;;;9.77;7.13;;;;;;;19.59;44.73;99638.50;2081993;28;20321;-40
2021/03/19 04:53:17;;;;;;;12.23;7.97;;;;;;;19.57;44.83;99624.97;2081527;28;20025;-40
2021/03/19 04:54:18;;;;;;;10.07;8.47;;;;;;;19.56;44.81;99631.50;2078441;28;20041;-41
2021/03/19 04:55:19;;;;;;;10.43;7.67;;;;;;;19.58;44.76;99639.53;2081677;28;20094;-41
2021/03/19 04:56:20;;;;;;;9.73;7.72;;;;;;;19.57;44.91;99624.13;2080816;28;20078;-41
2021/03/19 04:57:20;;;;;;;11.25;8.00;;;;;;;19.57;44.86;99635.91;2081386;28;20112;-41
2021/03/19 04:58:21;;;;;;;11.47;7.93;;;;;;;19.56;44.94;99627.91;2082288;28;20467;-41
2021/03/19 04:59:22;;;;;;;12.10;8.20;;;;;;;19.56;44.81;99622.44;2081938;28;20068;-41
2021/03/19 05:00:23;;;;;;;12.53;8.73;;;;;;;19.55;44.74;99632.53;2077624;28;20034;-40
2021/03/19 05:01:23;;;;;;;9.35;7.18;;;;;;;19.55;44.91;99626.16;2073553;28;20038;-41
2021/03/19 05:02:37;;;;;;;9.53;7.90;;;;;;;19.53;44.94;99629.09;2081976;28;20041;-40